createdAt,value
2018-10-18T00:00:07.939Z,987.33
2018-10-18T00:01:07.810Z,987.35
2018-10-18T00:02:07.842Z,987.34
2018-10-18T00:03:07.730Z,987.36
2018-10-18T00:04:07.674Z,987.35
2018-10-18T00:05:07.642Z,987.31
2018-10-18T00:06:07.649Z,987.32
2018-10-18T00:07:07.550Z,987.31
2018-10-18T00:08:07.581Z,987.28
2018-10-18T00:09:07.484Z,987.31
2018-10-18T00:10:07.442Z,987.31
2018-10-18T00:11:07.383Z,987.30
2018-10-18T00:12:07.411Z,987.29
2018-10-18T00:13:07.318Z,987.30
2018-10-18T00:14:07.331Z,987.25
2018-10-18T00:15:07.937Z,987.24
2018-10-18T00:16:07.196Z,987.24
2018-10-18T00:17:07.179Z,987.26
2018-10-18T00:18:07.165Z,987.22
2018-10-18T00:19:07.084Z,987.21
2018-10-18T00:20:07.047Z,987.23
2018-10-18T00:21:06.997Z,987.22
2018-10-18T00:22:06.968Z,987.25
2018-10-18T00:23:06.921Z,987.27
2018-10-18T00:24:06.964Z,987.19
2018-10-18T00:25:06.848Z,987.23
2018-10-18T00:26:06.859Z,987.21
2018-10-18T00:27:06.761Z,987.21
2018-10-18T00:28:06.712Z,987.21
2018-10-18T00:29:06.653Z,987.23
2018-10-18T00:30:06.731Z,987.18
2018-10-18T00:31:06.576Z,987.21
2018-10-18T00:32:06.575Z,987.21
2018-10-18T00:33:06.504Z,987.25
2018-10-18T00:34:06.457Z,987.22
2018-10-18T00:35:06.422Z,987.21
2018-10-18T00:36:06.403Z,987.20
2018-10-18T00:37:06.354Z,987.22
2018-10-18T00:38:06.345Z,987.23
2018-10-18T00:39:06.247Z,987.21
2018-10-18T00:40:06.206Z,987.24
2018-10-18T00:41:06.161Z,987.28
2018-10-18T00:42:06.248Z,987.27
2018-10-18T00:43:06.087Z,987.26
2018-10-18T00:44:06.100Z,987.27
2018-10-18T00:45:06.056Z,987.25
2018-10-18T00:46:05.961Z,987.21
2018-10-18T00:47:05.916Z,987.20
2018-10-18T00:48:06.025Z,987.19
2018-10-18T00:49:05.838Z,987.20
2018-10-18T00:50:05.870Z,987.18
2018-10-18T00:51:05.770Z,987.20
2018-10-18T00:52:05.723Z,987.20
2018-10-18T00:53:05.690Z,987.21
2018-10-18T00:54:05.760Z,987.20
2018-10-18T00:55:05.588Z,987.20
2018-10-18T00:56:05.607Z,987.20
2018-10-18T00:57:05.535Z,987.19
2018-10-18T00:58:05.473Z,987.19
2018-10-18T00:59:05.435Z,987.15
2018-10-18T01:00:05.460Z,987.15
2018-10-18T01:01:05.379Z,987.14
2018-10-18T01:02:05.422Z,987.13
2018-10-18T01:03:05.272Z,987.12
2018-10-18T01:04:05.258Z,987.15
2018-10-18T01:05:05.186Z,987.10
2018-10-18T01:06:05.183Z,987.11
2018-10-18T01:07:05.128Z,987.10
2018-10-18T01:08:05.132Z,987.03
2018-10-18T01:09:05.035Z,987.09
2018-10-18T01:10:04.983Z,987.06
2018-10-18T01:11:04.933Z,987.06
2018-10-18T01:12:04.993Z,987.05
2018-10-18T01:13:04.843Z,987.03
2018-10-18T01:14:04.910Z,987.03
2018-10-18T01:15:04.787Z,987.01
2018-10-18T01:16:04.754Z,987.03
2018-10-18T01:17:04.702Z,987.01
2018-10-18T01:18:04.708Z,987.01
2018-10-18T01:19:04.617Z,987.03
2018-10-18T01:20:04.611Z,987.02
2018-10-18T01:21:04.532Z,987.01
2018-10-18T01:22:04.477Z,987.02
2018-10-18T01:23:04.477Z,987.00
2018-10-18T01:24:04.418Z,987.01
2018-10-18T01:25:07.027Z,987.07
2018-10-18T01:26:04.355Z,987.05
2018-10-18T01:28:04.250Z,987.02
2018-10-18T01:29:04.183Z,987.04
2018-10-18T01:30:04.228Z,987.04
2018-10-18T01:31:04.131Z,987.04
2018-10-18T01:32:04.107Z,987.01
2018-10-18T01:33:04.049Z,987.04
2018-10-18T01:34:04.035Z,987.03
2018-10-18T01:35:03.971Z,987.04
2018-10-18T01:36:03.999Z,987.04
2018-10-18T01:37:03.877Z,987.02
2018-10-18T01:38:03.874Z,987.01
2018-10-18T01:39:03.794Z,987.02
2018-10-18T01:40:03.773Z,987.04
2018-10-18T01:41:03.705Z,986.99
2018-10-18T01:42:03.682Z,986.98
2018-10-18T01:43:03.622Z,986.97
2018-10-18T01:44:03.598Z,986.95
2018-10-18T01:45:03.554Z,986.96
2018-10-18T01:46:03.501Z,986.94
2018-10-18T01:47:03.480Z,986.96
2018-10-18T01:48:03.469Z,986.97
2018-10-18T01:49:03.421Z,986.95
2018-10-18T01:50:03.400Z,986.97
2018-10-18T01:51:03.281Z,986.91
2018-10-18T01:52:03.262Z,986.95
2018-10-18T01:53:03.196Z,986.93
2018-10-18T01:54:03.199Z,986.89
2018-10-18T01:55:03.130Z,986.93
2018-10-18T01:56:03.152Z,986.97
2018-10-18T01:57:03.045Z,986.94
2018-10-18T01:58:03.011Z,986.96
2018-10-18T01:59:02.978Z,986.95
2018-10-18T02:00:02.980Z,986.93
2018-10-18T02:01:02.891Z,986.97
2018-10-18T02:02:02.853Z,986.96
2018-10-18T02:03:02.811Z,986.94
2018-10-18T02:04:02.764Z,986.94
2018-10-18T02:05:02.723Z,986.95
2018-10-18T02:06:02.721Z,986.97
2018-10-18T02:07:02.638Z,986.96
2018-10-18T02:08:02.614Z,986.96
2018-10-18T02:09:02.562Z,986.94
2018-10-18T02:10:02.517Z,986.95
2018-10-18T02:11:02.484Z,986.95
2018-10-18T02:12:02.462Z,986.94
2018-10-18T02:13:02.386Z,986.94
2018-10-18T02:14:02.344Z,986.95
2018-10-18T02:15:02.314Z,986.94
2018-10-18T02:16:02.276Z,986.94
2018-10-18T02:17:02.231Z,986.92
2018-10-18T02:18:02.232Z,986.91
2018-10-18T02:19:02.152Z,986.97
2018-10-18T02:20:02.106Z,986.96
2018-10-18T02:21:02.057Z,986.98
2018-10-18T02:22:02.035Z,986.95
2018-10-18T02:23:01.997Z,986.97
2018-10-18T02:24:01.964Z,986.93
2018-10-18T02:25:01.982Z,986.96
2018-10-18T02:26:01.874Z,986.97
2018-10-18T02:27:01.802Z,986.93
2018-10-18T02:28:01.770Z,986.93
2018-10-18T02:29:01.724Z,986.91
2018-10-18T02:30:01.750Z,986.91
2018-10-18T02:31:01.672Z,986.95
2018-10-18T02:32:01.599Z,986.92
2018-10-18T02:33:01.568Z,986.91
2018-10-18T02:34:01.531Z,986.93
2018-10-18T02:35:01.483Z,986.95
2018-10-18T02:36:01.527Z,986.95
2018-10-18T02:37:01.415Z,986.92
2018-10-18T02:38:01.353Z,986.91
2018-10-18T02:39:01.320Z,986.92
2018-10-18T02:40:01.286Z,986.93
2018-10-18T02:41:01.250Z,986.91
2018-10-18T02:42:01.229Z,986.90
2018-10-18T02:43:01.155Z,986.91
2018-10-18T02:44:01.097Z,986.94
2018-10-18T02:45:01.086Z,986.87
2018-10-18T02:46:01.031Z,986.86
2018-10-18T02:47:01.003Z,986.91
2018-10-18T02:48:01.031Z,986.92
2018-10-18T02:49:00.910Z,986.96
2018-10-18T02:50:00.877Z,986.96
2018-10-18T02:51:00.828Z,986.93
2018-10-18T02:52:00.790Z,986.96
2018-10-18T02:53:00.739Z,986.96
2018-10-18T02:54:00.735Z,986.97
2018-10-18T02:55:00.640Z,986.97
2018-10-18T02:56:00.607Z,986.97
2018-10-18T02:57:00.570Z,987.00
2018-10-18T02:58:00.516Z,987.02
2018-10-18T02:59:00.486Z,987.00
2018-10-18T03:00:00.510Z,987.03
2018-10-18T03:01:00.420Z,987.03
2018-10-18T03:02:00.367Z,987.04
2018-10-18T03:03:00.324Z,987.03
2018-10-18T03:04:00.301Z,987.02
2018-10-18T03:05:00.276Z,987.04
2018-10-18T03:06:00.204Z,987.05
2018-10-18T03:07:00.165Z,987.01
2018-10-18T03:08:00.119Z,987.05
2018-10-18T03:09:00.082Z,987.04
2018-10-18T03:10:00.078Z,987.07
2018-10-18T03:11:00.025Z,987.08
2018-10-18T03:12:00.080Z,987.03
2018-10-18T03:12:59.927Z,987.04
2018-10-18T03:13:59.905Z,987.08
2018-10-18T03:14:59.819Z,987.11
2018-10-18T03:15:59.881Z,987.11
2018-10-18T03:16:59.740Z,987.12
2018-10-18T03:17:59.738Z,987.14
2018-10-18T03:18:59.659Z,987.14
2018-10-18T03:19:59.616Z,987.13
2018-10-18T03:20:59.612Z,987.14
2018-10-18T03:21:59.568Z,987.13
2018-10-18T03:22:59.587Z,987.14
2018-10-18T03:23:59.479Z,987.13
2018-10-18T03:24:59.424Z,987.13
2018-10-18T03:25:59.389Z,987.11
2018-10-18T03:26:59.341Z,987.12
2018-10-18T03:27:59.291Z,987.16
2018-10-18T03:28:59.264Z,987.12
2018-10-18T03:29:59.222Z,987.12
2018-10-18T03:30:59.176Z,987.15
2018-10-18T03:31:59.171Z,987.18
2018-10-18T03:32:59.071Z,987.17
2018-10-18T03:33:59.060Z,987.20
2018-10-18T03:34:59.051Z,987.15
2018-10-18T03:35:58.951Z,987.13
2018-10-18T03:36:58.910Z,987.15
2018-10-18T03:37:58.885Z,987.13
2018-10-18T03:38:58.850Z,987.10
2018-10-18T03:39:58.813Z,987.14
2018-10-18T03:40:58.768Z,987.13
2018-10-18T03:41:58.712Z,987.15
2018-10-18T03:42:58.679Z,987.16
2018-10-18T03:43:58.632Z,987.19
2018-10-18T03:44:58.683Z,987.19
2018-10-18T03:45:58.593Z,987.17
2018-10-18T03:46:58.510Z,987.18
2018-10-18T03:47:58.515Z,987.16
2018-10-18T03:48:58.430Z,987.16
2018-10-18T03:49:58.391Z,987.18
2018-10-18T03:50:58.364Z,987.16
2018-10-18T03:51:58.291Z,987.17
2018-10-18T03:52:58.264Z,987.20
2018-10-18T03:53:58.292Z,987.23
2018-10-18T03:54:58.221Z,987.19
2018-10-18T03:55:58.131Z,987.24
2018-10-18T03:56:58.127Z,987.24
2018-10-18T03:57:58.104Z,987.25
2018-10-18T03:58:58.061Z,987.27
2018-10-18T03:59:58.046Z,987.26
2018-10-18T04:00:57.932Z,987.30
2018-10-18T04:01:57.939Z,987.26
2018-10-18T04:02:57.847Z,987.28
2018-10-18T04:03:57.831Z,987.29
2018-10-18T04:04:57.773Z,987.30
2018-10-18T04:05:57.799Z,987.29
2018-10-18T04:06:57.691Z,987.30
2018-10-18T04:07:57.643Z,987.32
2018-10-18T04:08:57.601Z,987.27
2018-10-18T04:09:57.559Z,987.29
2018-10-18T04:10:57.531Z,987.34
2018-10-18T04:11:57.506Z,987.32
2018-10-18T04:12:57.514Z,987.34
2018-10-18T04:13:57.394Z,987.30
2018-10-18T04:14:57.374Z,987.28
2018-10-18T04:15:57.303Z,987.34
2018-10-18T04:16:57.278Z,987.28
2018-10-18T04:17:57.284Z,987.29
2018-10-18T04:18:57.204Z,987.28
2018-10-18T04:19:57.163Z,987.28
2018-10-18T04:20:57.111Z,987.29
2018-10-18T04:21:57.071Z,987.33
2018-10-18T04:22:57.038Z,987.35
2018-10-18T04:23:57.023Z,987.31
2018-10-18T04:24:56.958Z,987.33
2018-10-18T04:25:56.894Z,987.38
2018-10-18T04:26:56.858Z,987.33
2018-10-18T04:27:56.833Z,987.32
2018-10-18T04:28:56.794Z,987.32
2018-10-18T04:29:56.757Z,987.29
2018-10-18T04:30:56.699Z,987.33
2018-10-18T04:31:56.649Z,987.31
2018-10-18T04:32:56.622Z,987.29
2018-10-18T04:33:56.615Z,987.32
2018-10-18T04:34:56.552Z,987.29
2018-10-18T04:35:56.556Z,987.27
2018-10-18T04:36:56.453Z,987.31
2018-10-18T04:37:56.408Z,987.30
2018-10-18T04:38:56.357Z,987.32
2018-10-18T04:39:56.373Z,987.32
2018-10-18T04:40:56.294Z,987.34
2018-10-18T04:41:56.254Z,987.31
2018-10-18T04:42:56.207Z,987.33
2018-10-18T04:43:56.181Z,987.30
2018-10-18T04:44:56.231Z,987.31
2018-10-18T04:45:56.105Z,987.34
2018-10-18T04:46:56.077Z,987.34
2018-10-18T04:47:56.136Z,987.36
2018-10-18T04:48:56.177Z,987.34
2018-10-18T04:49:55.937Z,987.36
2018-10-18T04:50:55.887Z,987.37
2018-10-18T04:51:55.839Z,987.35
2018-10-18T04:52:55.801Z,987.38
2018-10-18T04:53:55.756Z,987.36
2018-10-18T04:54:55.767Z,987.39
2018-10-18T04:55:55.677Z,987.38
2018-10-18T04:56:55.709Z,987.38
2018-10-18T04:57:55.597Z,987.37
2018-10-18T04:58:55.555Z,987.39
2018-10-18T04:59:55.513Z,987.38
2018-10-18T05:00:55.490Z,987.38
2018-10-18T05:01:55.439Z,987.39
2018-10-18T05:02:55.387Z,987.37
2018-10-18T05:03:55.380Z,987.37
2018-10-18T05:04:55.328Z,987.35
2018-10-18T05:05:55.281Z,987.39
2018-10-18T05:06:55.266Z,987.41
2018-10-18T05:07:55.195Z,987.40
2018-10-18T05:08:55.174Z,987.39
2018-10-18T05:09:55.109Z,987.42
2018-10-18T05:10:55.072Z,987.42
2018-10-18T05:11:55.042Z,987.47
2018-10-18T05:12:55.018Z,987.49
2018-10-18T05:13:54.949Z,987.46
2018-10-18T05:14:54.909Z,987.52
2018-10-18T05:15:54.871Z,987.52
2018-10-18T05:16:54.840Z,987.52
2018-10-18T05:17:54.798Z,987.52
2018-10-18T05:18:54.833Z,987.52
2018-10-18T05:19:54.710Z,987.50
2018-10-18T05:20:54.665Z,987.57
2018-10-18T05:21:54.634Z,987.51
2018-10-18T05:22:54.603Z,987.54
2018-10-18T05:23:54.547Z,987.58
2018-10-18T05:24:54.536Z,987.56
2018-10-18T05:25:54.472Z,987.59
2018-10-18T05:26:54.422Z,987.59
2018-10-18T05:27:54.384Z,987.58
2018-10-18T05:28:54.343Z,987.59
2018-10-18T05:29:54.321Z,987.61
2018-10-18T05:30:54.297Z,987.62
2018-10-18T05:31:54.211Z,987.67
2018-10-18T05:32:54.174Z,987.66
2018-10-18T05:33:54.152Z,987.67
2018-10-18T05:34:54.120Z,987.65
2018-10-18T05:35:54.061Z,987.68
2018-10-18T05:36:54.063Z,987.72
2018-10-18T05:37:54.127Z,987.69
2018-10-18T05:38:53.968Z,987.71
2018-10-18T05:39:53.928Z,987.70
2018-10-18T05:40:53.877Z,987.73
2018-10-18T05:41:53.848Z,987.76
2018-10-18T05:42:53.816Z,987.79
2018-10-18T05:43:53.763Z,987.80
2018-10-18T05:44:53.699Z,987.75
2018-10-18T05:45:53.667Z,987.76
2018-10-18T05:46:53.721Z,987.78
2018-10-18T05:47:53.613Z,987.80
2018-10-18T05:48:53.574Z,987.83
2018-10-18T05:49:53.511Z,987.89
2018-10-18T05:50:53.466Z,987.88
2018-10-18T05:51:53.431Z,987.87
2018-10-18T05:52:53.448Z,987.88
2018-10-18T05:53:53.464Z,987.91
2018-10-18T05:54:53.333Z,987.90
2018-10-18T05:55:53.274Z,987.89
2018-10-18T05:56:53.220Z,987.94
2018-10-18T05:57:53.181Z,987.95
2018-10-18T05:58:53.157Z,987.97
2018-10-18T05:59:53.107Z,988.02
2018-10-18T06:00:53.129Z,988.04
2018-10-18T06:01:53.023Z,988.02
2018-10-18T06:02:52.987Z,988.08
2018-10-18T06:03:52.972Z,988.05
2018-10-18T06:04:52.910Z,988.07
2018-10-18T06:05:52.859Z,988.07
2018-10-18T06:06:52.914Z,988.10
2018-10-18T06:07:52.778Z,988.07
2018-10-18T06:08:52.772Z,988.09
2018-10-18T06:09:52.776Z,988.14
2018-10-18T06:10:52.682Z,988.11
2018-10-18T06:11:52.728Z,988.14
2018-10-18T06:12:52.628Z,988.16
2018-10-18T06:13:52.543Z,988.17
2018-10-18T06:14:52.515Z,988.19
2018-10-18T06:15:52.475Z,988.20
2018-10-18T06:16:52.442Z,988.25
2018-10-18T06:17:52.399Z,988.25
2018-10-18T06:18:52.413Z,988.24
2018-10-18T06:19:52.311Z,988.25
2018-10-18T06:20:52.273Z,988.24
2018-10-18T06:21:52.250Z,988.27
2018-10-18T06:22:52.277Z,988.26
2018-10-18T06:23:52.165Z,988.27
2018-10-18T06:24:52.162Z,988.27
2018-10-18T06:25:52.071Z,988.29
2018-10-18T06:26:52.035Z,988.31
2018-10-18T06:27:52.000Z,988.29
2018-10-18T06:28:51.987Z,988.28
2018-10-18T06:29:51.915Z,988.29
2018-10-18T06:30:51.894Z,988.30
2018-10-18T06:31:51.826Z,988.29
2018-10-18T06:32:51.861Z,988.27
2018-10-18T06:33:51.768Z,988.27
2018-10-18T06:34:51.726Z,988.28
2018-10-18T06:35:51.688Z,988.26
2018-10-18T06:36:51.665Z,988.29
2018-10-18T06:37:51.600Z,988.29
2018-10-18T06:38:51.574Z,988.31
2018-10-18T06:39:51.544Z,988.32
2018-10-18T06:40:51.504Z,988.34
2018-10-18T06:41:51.466Z,988.33
2018-10-18T06:42:51.434Z,988.33
2018-10-18T06:43:51.397Z,988.35
2018-10-18T06:44:51.336Z,988.40
2018-10-18T06:45:51.303Z,988.43
2018-10-18T06:46:51.262Z,988.39
2018-10-18T06:47:51.445Z,988.42
2018-10-18T06:48:51.162Z,988.43
2018-10-18T06:49:51.146Z,988.43
2018-10-18T06:50:51.099Z,988.41
2018-10-18T06:51:51.056Z,988.43
2018-10-18T06:52:51.012Z,988.47
2018-10-18T06:53:50.973Z,988.47
2018-10-18T06:54:50.951Z,988.45
2018-10-18T06:55:50.890Z,988.48
2018-10-18T06:56:50.858Z,988.46
2018-10-18T06:57:50.825Z,988.47
2018-10-18T06:58:50.801Z,988.49
2018-10-18T06:59:50.795Z,988.51
2018-10-18T07:00:50.755Z,988.51
2018-10-18T07:01:50.681Z,988.53
2018-10-18T07:02:50.625Z,988.52
2018-10-18T07:03:50.582Z,988.48
2018-10-18T07:04:50.544Z,988.47
2018-10-18T07:05:50.506Z,988.50
2018-10-18T07:06:50.475Z,988.52
2018-10-18T07:07:50.438Z,988.57
2018-10-18T07:08:50.431Z,988.52
2018-10-18T07:09:50.357Z,988.55
2018-10-18T07:10:50.338Z,988.56
2018-10-18T07:11:50.279Z,988.58
2018-10-18T07:12:50.252Z,988.50
2018-10-18T07:13:50.231Z,988.54
2018-10-18T07:14:50.177Z,988.55
2018-10-18T07:15:50.131Z,988.53
2018-10-18T07:16:50.123Z,988.54
2018-10-18T07:17:50.077Z,988.54
2018-10-18T07:18:50.026Z,988.59
2018-10-18T07:19:49.979Z,988.57
2018-10-18T07:20:49.944Z,988.56
2018-10-18T07:21:49.890Z,988.59
2018-10-18T07:22:49.857Z,988.61
2018-10-18T07:23:49.837Z,988.62
2018-10-18T07:24:49.828Z,988.60
2018-10-18T07:25:49.765Z,988.64
2018-10-18T07:26:49.725Z,988.66
2018-10-18T07:27:49.675Z,988.68
2018-10-18T07:28:49.655Z,988.65
2018-10-18T07:29:49.588Z,988.68
2018-10-18T07:30:49.575Z,988.69
2018-10-18T07:31:49.524Z,988.71
2018-10-18T07:32:49.500Z,988.72
2018-10-18T07:33:49.451Z,988.73
2018-10-18T07:34:49.461Z,988.71
2018-10-18T07:35:49.367Z,988.73
2018-10-18T07:36:49.321Z,988.73
2018-10-18T07:37:49.289Z,988.76
2018-10-18T07:38:49.244Z,988.70
2018-10-18T07:39:49.276Z,988.71
2018-10-18T07:40:49.199Z,988.72
2018-10-18T07:41:49.169Z,988.76
2018-10-18T07:42:49.110Z,988.80
2018-10-18T07:43:49.079Z,988.79
2018-10-18T07:44:49.042Z,988.79
2018-10-18T07:45:49.013Z,988.79
2018-10-18T07:46:49.052Z,988.77
2018-10-18T07:47:48.939Z,988.79
2018-10-18T07:48:48.906Z,988.75
2018-10-18T07:49:48.846Z,988.75
2018-10-18T07:50:48.832Z,988.76
2018-10-18T07:51:48.765Z,988.78
2018-10-18T07:52:48.762Z,988.82
2018-10-18T07:53:48.692Z,988.78
2018-10-18T07:54:48.676Z,988.79
2018-10-18T07:55:48.661Z,988.82
2018-10-18T07:56:48.604Z,988.84
2018-10-18T07:57:48.543Z,988.80
2018-10-18T07:58:48.502Z,988.82
2018-10-18T07:59:48.470Z,988.80
2018-10-18T08:00:48.540Z,988.81
2018-10-18T08:01:48.412Z,988.79
2018-10-18T08:02:48.358Z,988.77
2018-10-18T08:03:48.332Z,988.79
2018-10-18T08:04:48.302Z,988.80
2018-10-18T08:05:48.255Z,988.83
2018-10-18T08:06:48.200Z,988.81
2018-10-18T08:07:48.179Z,988.82
2018-10-18T08:08:48.220Z,988.83
2018-10-18T08:09:48.163Z,988.86
2018-10-18T08:10:48.137Z,988.86
2018-10-18T08:11:48.035Z,988.90
2018-10-18T08:12:48.011Z,988.92
2018-10-18T08:13:47.965Z,988.89
2018-10-18T08:14:48.002Z,988.93
2018-10-18T08:15:47.886Z,988.90
2018-10-18T08:16:48.015Z,988.91
2018-10-18T08:17:47.831Z,988.88
2018-10-18T08:18:47.773Z,988.86
2018-10-18T08:19:47.751Z,988.88
2018-10-18T08:20:47.725Z,988.88
2018-10-18T08:21:47.733Z,988.88
2018-10-18T08:22:47.629Z,988.91
2018-10-18T08:23:47.607Z,988.95
2018-10-18T08:24:47.591Z,988.91
2018-10-18T08:25:47.536Z,988.92
2018-10-18T08:26:47.527Z,988.92
2018-10-18T08:27:47.476Z,988.92
2018-10-18T08:28:47.442Z,988.91
2018-10-18T08:29:47.391Z,988.89
2018-10-18T08:30:47.368Z,988.91
2018-10-18T08:31:47.404Z,988.87
2018-10-18T08:32:47.299Z,988.93
2018-10-18T08:33:47.250Z,988.94
2018-10-18T08:34:47.230Z,988.95
2018-10-18T08:35:47.191Z,988.95
2018-10-18T08:36:47.152Z,988.95
2018-10-18T08:37:47.319Z,988.94
2018-10-18T08:38:47.090Z,988.98
2018-10-18T08:39:47.044Z,988.92
2018-10-18T08:40:47.037Z,988.92
2018-10-18T08:41:46.970Z,988.92
2018-10-18T08:42:46.955Z,988.94
2018-10-18T08:43:46.944Z,988.96
2018-10-18T08:44:46.906Z,989.01
2018-10-18T08:45:46.857Z,988.99
2018-10-18T08:46:46.813Z,989.00
2018-10-18T08:47:46.799Z,988.99
2018-10-18T08:48:46.764Z,988.96
2018-10-18T08:49:46.769Z,988.98
2018-10-18T08:50:46.702Z,988.99
2018-10-18T08:51:46.659Z,989.04
2018-10-18T08:52:46.609Z,989.03
2018-10-18T08:53:46.576Z,989.02
2018-10-18T08:54:46.557Z,989.03
2018-10-18T08:55:46.515Z,989.04
2018-10-18T08:56:46.470Z,989.03
2018-10-18T08:57:46.440Z,989.02
2018-10-18T08:58:46.398Z,989.04
2018-10-18T08:59:46.385Z,989.06
2018-10-18T09:00:46.355Z,989.05
2018-10-18T09:01:46.298Z,989.06
2018-10-18T09:02:46.278Z,989.04
2018-10-18T09:03:46.240Z,989.00
2018-10-18T09:04:46.209Z,989.02
2018-10-18T09:05:46.173Z,989.04
2018-10-18T09:06:46.150Z,989.06
2018-10-18T09:07:46.082Z,989.02
2018-10-18T09:08:46.066Z,989.02
2018-10-18T09:09:46.037Z,989.05
2018-10-18T09:10:46.007Z,989.00
2018-10-18T09:11:45.980Z,989.02
2018-10-18T09:12:45.943Z,989.02
2018-10-18T09:13:45.910Z,989.01
2018-10-18T09:14:45.878Z,988.98
2018-10-18T09:15:45.835Z,988.97
2018-10-18T09:16:45.803Z,989.00
2018-10-18T09:17:45.799Z,989.02
2018-10-18T09:18:45.728Z,988.99
2018-10-18T09:19:45.709Z,989.03
2018-10-18T09:20:45.672Z,989.01
2018-10-18T09:21:45.661Z,989.00
2018-10-18T09:22:45.625Z,988.97
2018-10-18T09:23:45.599Z,989.01
2018-10-18T09:24:45.543Z,988.98
2018-10-18T09:25:45.515Z,988.99
2018-10-18T09:26:45.473Z,988.98
2018-10-18T09:27:45.432Z,988.98
2018-10-18T09:28:45.413Z,988.95
2018-10-18T09:29:45.387Z,988.94
2018-10-18T09:30:45.357Z,988.95
2018-10-18T09:31:45.325Z,988.98
2018-10-18T09:32:45.278Z,988.95
2018-10-18T09:33:45.267Z,988.93
2018-10-18T09:34:45.225Z,988.97
2018-10-18T09:35:45.173Z,988.94
2018-10-18T09:36:45.156Z,988.94
2018-10-18T09:37:45.112Z,988.96
2018-10-18T09:38:45.099Z,988.93
2018-10-18T09:39:45.049Z,988.90
2018-10-18T09:40:45.018Z,988.88
2018-10-18T09:41:45.002Z,988.90
2018-10-18T09:42:44.969Z,988.94
2018-10-18T09:43:44.927Z,988.99
2018-10-18T09:44:44.921Z,988.99
2018-10-18T09:45:44.868Z,988.96
2018-10-18T09:46:44.824Z,988.96
2018-10-18T09:47:44.801Z,989.00
2018-10-18T09:48:44.776Z,988.95
2018-10-18T09:49:44.735Z,988.99
2018-10-18T09:50:44.714Z,988.93
2018-10-18T09:51:44.696Z,988.93
2018-10-18T09:52:44.714Z,988.95
2018-10-18T09:53:44.617Z,988.96
2018-10-18T09:54:44.588Z,988.97
2018-10-18T09:55:44.678Z,988.96
2018-10-18T09:56:44.533Z,988.98
2018-10-18T09:57:44.512Z,988.98
2018-10-18T09:58:44.460Z,988.92
2018-10-18T09:59:44.413Z,988.92
2018-10-18T10:00:44.396Z,988.93
2018-10-18T10:01:44.358Z,988.93
2018-10-18T10:02:44.330Z,988.93
2018-10-18T10:03:44.290Z,988.95
2018-10-18T10:04:44.273Z,988.94
2018-10-18T10:05:44.278Z,988.93
2018-10-18T10:06:44.227Z,988.89
2018-10-18T10:07:44.178Z,988.90
2018-10-18T10:08:44.230Z,988.90
2018-10-18T10:09:44.130Z,988.88
2018-10-18T10:10:44.087Z,988.85
2018-10-18T10:11:44.130Z,988.86
2018-10-18T10:12:44.037Z,988.85
2018-10-18T10:13:44.054Z,988.87
2018-10-18T10:14:43.968Z,988.85
2018-10-18T10:15:43.948Z,988.85
2018-10-18T10:16:43.902Z,988.88
2018-10-18T10:17:43.981Z,988.84
2018-10-18T10:18:43.892Z,988.88
2018-10-18T10:19:43.835Z,988.78
2018-10-18T10:20:43.790Z,988.79
2018-10-18T10:21:43.767Z,988.81
2018-10-18T10:22:43.743Z,988.80
2018-10-18T10:23:43.699Z,988.83
2018-10-18T10:24:43.805Z,988.78
2018-10-18T10:25:43.633Z,988.78
2018-10-18T10:26:43.597Z,988.79
2018-10-18T10:27:43.596Z,988.81
2018-10-18T10:28:43.568Z,988.79
2018-10-18T10:29:43.503Z,988.75
2018-10-18T10:30:43.484Z,988.79
2018-10-18T10:31:43.479Z,988.82
2018-10-18T10:32:43.485Z,988.82
2018-10-18T10:33:43.435Z,988.78
2018-10-18T10:34:43.380Z,988.82
2018-10-18T10:35:43.461Z,988.81
2018-10-18T10:36:43.302Z,988.80
2018-10-18T10:37:43.281Z,988.82
2018-10-18T10:38:43.241Z,988.76
2018-10-18T10:39:43.230Z,988.78
2018-10-18T10:40:43.199Z,988.74
2018-10-18T10:41:43.153Z,988.70
2018-10-18T10:42:43.152Z,988.74
2018-10-18T10:43:43.096Z,988.74
2018-10-18T10:44:43.071Z,988.76
2018-10-18T10:45:43.171Z,988.76
2018-10-18T10:46:43.015Z,988.75
2018-10-18T10:47:42.984Z,988.79
2018-10-18T10:48:42.956Z,988.75
2018-10-18T10:49:42.935Z,988.77
2018-10-18T10:50:42.889Z,988.79
2018-10-18T10:51:42.857Z,988.73
2018-10-18T10:52:42.833Z,988.75
2018-10-18T10:53:42.819Z,988.73
2018-10-18T10:54:42.776Z,988.72
2018-10-18T10:55:42.740Z,988.71
2018-10-18T10:56:42.709Z,988.72
2018-10-18T10:57:42.677Z,988.71
2018-10-18T10:58:42.728Z,988.67
2018-10-18T10:59:42.647Z,988.67
2018-10-18T11:00:42.603Z,988.70
2018-10-18T11:01:42.566Z,988.71
2018-10-18T11:02:42.532Z,988.69
2018-10-18T11:03:42.496Z,988.67
2018-10-18T11:04:42.510Z,988.65
2018-10-18T11:05:42.448Z,988.68
2018-10-18T11:06:42.432Z,988.69
2018-10-18T11:07:42.380Z,988.64
2018-10-18T11:08:42.379Z,988.70
2018-10-18T11:09:42.417Z,988.67
2018-10-18T11:10:42.278Z,988.68
2018-10-18T11:11:42.266Z,988.67
2018-10-18T11:12:42.246Z,988.68
2018-10-18T11:13:42.213Z,988.68
2018-10-18T11:14:42.184Z,988.69
2018-10-18T11:15:42.146Z,988.70
2018-10-18T11:16:42.107Z,988.67
2018-10-18T11:17:42.100Z,988.67
2018-10-18T11:18:42.050Z,988.69
2018-10-18T11:19:42.017Z,988.72
2018-10-18T11:20:42.032Z,988.69
2018-10-18T11:21:42.084Z,988.74
2018-10-18T11:22:41.932Z,988.69
2018-10-18T11:23:41.906Z,988.72
2018-10-18T11:24:41.926Z,988.75
2018-10-18T11:25:41.847Z,988.78
2018-10-18T11:26:41.809Z,988.77
2018-10-18T11:27:41.790Z,988.81
2018-10-18T11:28:41.759Z,988.81
2018-10-18T11:29:41.725Z,988.80
2018-10-18T11:30:41.683Z,988.77
2018-10-18T11:31:41.656Z,988.75
2018-10-18T11:32:41.648Z,988.77
2018-10-18T11:33:41.610Z,988.80
2018-10-18T11:34:41.594Z,988.80
2018-10-18T11:35:41.537Z,988.82
2018-10-18T11:36:41.519Z,988.81
2018-10-18T11:37:41.484Z,988.79
2018-10-18T11:38:41.448Z,988.80
2018-10-18T11:39:41.418Z,988.83
2018-10-18T11:40:41.389Z,988.82
2018-10-18T11:41:41.358Z,988.82
2018-10-18T11:42:41.368Z,988.80
2018-10-18T11:43:41.291Z,988.79
2018-10-18T11:44:41.268Z,988.82
2018-10-18T11:45:41.246Z,988.82
2018-10-18T11:46:41.204Z,988.79
2018-10-18T11:47:41.181Z,988.79
2018-10-18T11:48:41.142Z,988.79
2018-10-18T11:49:41.119Z,988.74
2018-10-18T11:50:41.124Z,988.72
2018-10-18T11:51:41.187Z,988.76
2018-10-18T11:52:41.015Z,988.77
2018-10-18T11:53:40.999Z,988.76
2018-10-18T11:54:40.967Z,988.74
2018-10-18T11:55:40.927Z,988.72
2018-10-18T11:56:40.928Z,988.74
2018-10-18T11:57:40.889Z,988.72
2018-10-18T11:58:40.842Z,988.71
2018-10-18T11:59:40.812Z,988.71
2018-10-18T12:00:40.790Z,988.69
2018-10-18T12:01:40.758Z,988.65
2018-10-18T12:02:40.867Z,988.64
2018-10-18T12:03:40.702Z,988.72
2018-10-18T12:04:40.649Z,988.66
2018-10-18T12:05:40.640Z,988.69
2018-10-18T12:06:40.591Z,988.68
2018-10-18T12:07:40.552Z,988.67
2018-10-18T12:08:40.528Z,988.68
2018-10-18T12:09:40.493Z,988.70
2018-10-18T12:10:40.458Z,988.66
2018-10-18T12:11:40.446Z,988.69
2018-10-18T12:12:40.394Z,988.70
2018-10-18T12:13:40.368Z,988.65
2018-10-18T12:14:40.340Z,988.70
2018-10-18T12:15:40.345Z,988.73
2018-10-18T12:16:40.287Z,988.75
2018-10-18T12:17:40.268Z,988.75
2018-10-18T12:18:40.216Z,988.75
2018-10-18T12:19:40.186Z,988.79
2018-10-18T12:20:40.154Z,988.74
2018-10-18T12:21:40.128Z,988.79
2018-10-18T12:22:40.075Z,988.78
2018-10-18T12:23:40.072Z,988.80
2018-10-18T12:24:40.009Z,988.77
2018-10-18T12:25:39.984Z,988.79
2018-10-18T12:26:40.010Z,988.81
2018-10-18T12:27:39.924Z,988.80
2018-10-18T12:28:39.917Z,988.75